<?xml version="1.0" encoding="UTF-8" standalone="no" ?>
<gpx xmlns="http://www.topografix.com/GPX/1/1" xmlns:xsi="http://www.w3.org/2001/XMLSchema-instance" xsi:schemaLocation="http://www.topografix.com/GPX/1/1 http://www.topografix.com/GPX/1/1/gpx.xsd" version="1.1" creator="VisuGPX - https://www.visugpx.com">
  <metadata>
    <name>46-RL-Catus lac Vert -2- 05/06/25</name>
    <desc><![CDATA[Départ : parking école de Catus, juste avant les pompiers.

Promenade autour du lac de Catus.

[youtube]lzyPxuZ-p9Y|800[/youtube]

]]></desc>
  </metadata>
  <trk>
    <name><![CDATA[46-RL-Catus-lac-2-05-06-26]]></name>
    <trkseg>
      <trkpt lat="44.55523" lon="1.3395">
        <ele>163.56</ele>
        <time>2026-06-05T11:53:27Z</time>
      </trkpt>
      <trkpt lat="44.55523" lon="1.3395">
        <ele>163.56</ele>
        <time>2026-06-05T11:53:29Z</time>
      </trkpt>
      <trkpt lat="44.55522" lon="1.3395">
        <ele>167.41</ele>
        <time>2026-06-05T11:53:32Z</time>
      </trkpt>
      <trkpt lat="44.55522" lon="1.3395">
        <ele>167.41</ele>
        <time>2026-06-05T11:53:33Z</time>
      </trkpt>
      <trkpt lat="44.55523" lon="1.3395">
        <ele>167.89</ele>
        <time>2026-06-05T11:53:54Z</time>
      </trkpt>
      <trkpt lat="44.55522" lon="1.33952">
        <ele>163.08</ele>
        <time>2026-06-05T11:54:11Z</time>
      </trkpt>
      <trkpt lat="44.55522" lon="1.33952">
        <ele>168.37</ele>
        <time>2026-06-05T11:54:12Z</time>
      </trkpt>
      <trkpt lat="44.55523" lon="1.33952">
        <ele>168.37</ele>
        <time>2026-06-05T11:54:13Z</time>
      </trkpt>
      <trkpt lat="44.55523" lon="1.33952">
        <ele>167.41</ele>
        <time>2026-06-05T11:54:18Z</time>
      </trkpt>
      <trkpt lat="44.55525" lon="1.3395">
        <ele>167.89</ele>
        <time>2026-06-05T11:54:39Z</time>
      </trkpt>
      <trkpt lat="44.55527" lon="1.33951">
        <ele>167.41</ele>
        <time>2026-06-05T11:55:02Z</time>
      </trkpt>
      <trkpt lat="44.55526" lon="1.33951">
        <ele>167.41</ele>
        <time>2026-06-05T11:55:23Z</time>
      </trkpt>
      <trkpt lat="44.55522" lon="1.33947">
        <ele>167.41</ele>
        <time>2026-06-05T11:55:39Z</time>
      </trkpt>
      <trkpt lat="44.55518" lon="1.33946">
        <ele>167.41</ele>
        <time>2026-06-05T11:55:56Z</time>
      </trkpt>
      <trkpt lat="44.5552" lon="1.33945">
        <ele>167.41</ele>
        <time>2026-06-05T11:56:13Z</time>
      </trkpt>
      <trkpt lat="44.55524" lon="1.33946">
        <ele>167.41</ele>
        <time>2026-06-05T11:56:28Z</time>
      </trkpt>
      <trkpt lat="44.5552" lon="1.33942">
        <ele>167.41</ele>
        <time>2026-06-05T11:56:40Z</time>
      </trkpt>
      <trkpt lat="44.55518" lon="1.33929">
        <ele>166.45</ele>
        <time>2026-06-05T11:56:53Z</time>
      </trkpt>
      <trkpt lat="44.55517" lon="1.33925">
        <ele>166.45</ele>
        <time>2026-06-05T11:56:56Z</time>
      </trkpt>
      <trkpt lat="44.55515" lon="1.3391">
        <ele>165.96</ele>
        <time>2026-06-05T11:57:10Z</time>
      </trkpt>
      <trkpt lat="44.55512" lon="1.33891">
        <ele>165.96</ele>
        <time>2026-06-05T11:57:23Z</time>
      </trkpt>
      <trkpt lat="44.55509" lon="1.3387">
        <ele>165.96</ele>
        <time>2026-06-05T11:57:39Z</time>
      </trkpt>
      <trkpt lat="44.55509" lon="1.33858">
        <ele>165.96</ele>
        <time>2026-06-05T11:57:49Z</time>
      </trkpt>
      <trkpt lat="44.55509" lon="1.33855">
        <ele>165.96</ele>
        <time>2026-06-05T11:57:51Z</time>
      </trkpt>
      <trkpt lat="44.55505" lon="1.33825">
        <ele>165.96</ele>
        <time>2026-06-05T11:58:10Z</time>
      </trkpt>
      <trkpt lat="44.55503" lon="1.33802">
        <ele>165.96</ele>
        <time>2026-06-05T11:58:27Z</time>
      </trkpt>
      <trkpt lat="44.55503" lon="1.33796">
        <ele>165.96</ele>
        <time>2026-06-05T11:58:40Z</time>
      </trkpt>
      <trkpt lat="44.555" lon="1.33785">
        <ele>165.96</ele>
        <time>2026-06-05T11:58:51Z</time>
      </trkpt>
      <trkpt lat="44.55499" lon="1.33777">
        <ele>166.93</ele>
        <time>2026-06-05T11:58:57Z</time>
      </trkpt>
      <trkpt lat="44.55497" lon="1.33764">
        <ele>166.93</ele>
        <time>2026-06-05T11:59:06Z</time>
      </trkpt>
      <trkpt lat="44.55497" lon="1.3375">
        <ele>167.41</ele>
        <time>2026-06-05T11:59:21Z</time>
      </trkpt>
      <trkpt lat="44.55495" lon="1.33736">
        <ele>167.41</ele>
        <time>2026-06-05T11:59:36Z</time>
      </trkpt>
      <trkpt lat="44.55492" lon="1.33722">
        <ele>167.41</ele>
        <time>2026-06-05T11:59:49Z</time>
      </trkpt>
      <trkpt lat="44.55487" lon="1.33716">
        <ele>167.41</ele>
        <time>2026-06-05T11:59:55Z</time>
      </trkpt>
      <trkpt lat="44.55487" lon="1.33713">
        <ele>167.41</ele>
        <time>2026-06-05T11:59:57Z</time>
      </trkpt>
      <trkpt lat="44.55486" lon="1.33707">
        <ele>167.41</ele>
        <time>2026-06-05T12:00:10Z</time>
      </trkpt>
      <trkpt lat="44.55488" lon="1.33704">
        <ele>167.41</ele>
        <time>2026-06-05T12:00:30Z</time>
      </trkpt>
      <trkpt lat="44.55493" lon="1.33694">
        <ele>167.41</ele>
        <time>2026-06-05T12:00:47Z</time>
      </trkpt>
      <trkpt lat="44.55495" lon="1.33695">
        <ele>167.41</ele>
        <time>2026-06-05T12:00:59Z</time>
      </trkpt>
      <trkpt lat="44.55498" lon="1.3369">
        <ele>167.41</ele>
        <time>2026-06-05T12:01:03Z</time>
      </trkpt>
      <trkpt lat="44.5551" lon="1.33677">
        <ele>167.41</ele>
        <time>2026-06-05T12:01:16Z</time>
      </trkpt>
      <trkpt lat="44.55512" lon="1.33675">
        <ele>167.41</ele>
        <time>2026-06-05T12:01:18Z</time>
      </trkpt>
      <trkpt lat="44.55517" lon="1.3367">
        <ele>165.96</ele>
        <time>2026-06-05T12:01:29Z</time>
      </trkpt>
      <trkpt lat="44.55519" lon="1.33669">
        <ele>165.96</ele>
        <time>2026-06-05T12:01:40Z</time>
      </trkpt>
      <trkpt lat="44.55516" lon="1.33656">
        <ele>165.96</ele>
        <time>2026-06-05T12:01:54Z</time>
      </trkpt>
      <trkpt lat="44.55511" lon="1.33642">
        <ele>165.48</ele>
        <time>2026-06-05T12:02:07Z</time>
      </trkpt>
      <trkpt lat="44.55506" lon="1.33632">
        <ele>165.48</ele>
        <time>2026-06-05T12:02:15Z</time>
      </trkpt>
      <trkpt lat="44.55506" lon="1.33631">
        <ele>165.48</ele>
        <time>2026-06-05T12:02:16Z</time>
      </trkpt>
      <trkpt lat="44.55496" lon="1.33609">
        <ele>165.48</ele>
        <time>2026-06-05T12:02:33Z</time>
      </trkpt>
      <trkpt lat="44.5549" lon="1.33596">
        <ele>165.48</ele>
        <time>2026-06-05T12:02:45Z</time>
      </trkpt>
      <trkpt lat="44.55483" lon="1.33578">
        <ele>165.48</ele>
        <time>2026-06-05T12:03:00Z</time>
      </trkpt>
      <trkpt lat="44.55476" lon="1.33568">
        <ele>165.48</ele>
        <time>2026-06-05T12:03:15Z</time>
      </trkpt>
      <trkpt lat="44.5547" lon="1.3356">
        <ele>166.93</ele>
        <time>2026-06-05T12:03:27Z</time>
      </trkpt>
      <trkpt lat="44.55462" lon="1.33546">
        <ele>166.93</ele>
        <time>2026-06-05T12:03:43Z</time>
      </trkpt>
      <trkpt lat="44.55459" lon="1.33536">
        <ele>166.93</ele>
        <time>2026-06-05T12:03:56Z</time>
      </trkpt>
      <trkpt lat="44.5546" lon="1.33523">
        <ele>166.93</ele>
        <time>2026-06-05T12:04:10Z</time>
      </trkpt>
      <trkpt lat="44.55456" lon="1.33508">
        <ele>166.93</ele>
        <time>2026-06-05T12:04:24Z</time>
      </trkpt>
      <trkpt lat="44.55454" lon="1.33496">
        <ele>166.93</ele>
        <time>2026-06-05T12:04:37Z</time>
      </trkpt>
      <trkpt lat="44.55447" lon="1.33478">
        <ele>166.93</ele>
        <time>2026-06-05T12:04:52Z</time>
      </trkpt>
      <trkpt lat="44.55444" lon="1.33471">
        <ele>166.93</ele>
        <time>2026-06-05T12:04:59Z</time>
      </trkpt>
      <trkpt lat="44.55439" lon="1.3346">
        <ele>167.41</ele>
        <time>2026-06-05T12:05:12Z</time>
      </trkpt>
      <trkpt lat="44.55439" lon="1.3346">
        <ele>166.93</ele>
        <time>2026-06-05T12:05:36Z</time>
      </trkpt>
      <trkpt lat="44.55438" lon="1.33459">
        <ele>166.93</ele>
        <time>2026-06-05T12:05:59Z</time>
      </trkpt>
      <trkpt lat="44.55433" lon="1.33453">
        <ele>167.41</ele>
        <time>2026-06-05T12:06:15Z</time>
      </trkpt>
      <trkpt lat="44.55425" lon="1.33446">
        <ele>167.41</ele>
        <time>2026-06-05T12:06:28Z</time>
      </trkpt>
      <trkpt lat="44.5542" lon="1.33434">
        <ele>168.85</ele>
        <time>2026-06-05T12:06:41Z</time>
      </trkpt>
      <trkpt lat="44.55414" lon="1.33419">
        <ele>170.29</ele>
        <time>2026-06-05T12:06:54Z</time>
      </trkpt>
      <trkpt lat="44.55411" lon="1.33414">
        <ele>170.29</ele>
        <time>2026-06-05T12:07:00Z</time>
      </trkpt>
      <trkpt lat="44.55405" lon="1.33402">
        <ele>171.73</ele>
        <time>2026-06-05T12:07:12Z</time>
      </trkpt>
      <trkpt lat="44.55399" lon="1.33392">
        <ele>172.21</ele>
        <time>2026-06-05T12:07:25Z</time>
      </trkpt>
      <trkpt lat="44.55391" lon="1.33378">
        <ele>172.69</ele>
        <time>2026-06-05T12:07:41Z</time>
      </trkpt>
      <trkpt lat="44.55386" lon="1.33364">
        <ele>172.69</ele>
        <time>2026-06-05T12:07:55Z</time>
      </trkpt>
      <trkpt lat="44.5538" lon="1.33353">
        <ele>172.69</ele>
        <time>2026-06-05T12:08:09Z</time>
      </trkpt>
      <trkpt lat="44.55377" lon="1.33345">
        <ele>172.69</ele>
        <time>2026-06-05T12:08:21Z</time>
      </trkpt>
      <trkpt lat="44.55367" lon="1.33334">
        <ele>171.73</ele>
        <time>2026-06-05T12:08:35Z</time>
      </trkpt>
      <trkpt lat="44.55358" lon="1.33318">
        <ele>171.25</ele>
        <time>2026-06-05T12:08:52Z</time>
      </trkpt>
      <trkpt lat="44.55353" lon="1.33311">
        <ele>171.25</ele>
        <time>2026-06-05T12:09:06Z</time>
      </trkpt>
      <trkpt lat="44.55352" lon="1.33313">
        <ele>169.81</ele>
        <time>2026-06-05T12:09:12Z</time>
      </trkpt>
      <trkpt lat="44.55348" lon="1.3329">
        <ele>168.85</ele>
        <time>2026-06-05T12:09:37Z</time>
      </trkpt>
      <trkpt lat="44.55345" lon="1.33286">
        <ele>168.37</ele>
        <time>2026-06-05T12:09:49Z</time>
      </trkpt>
      <trkpt lat="44.5534" lon="1.33271">
        <ele>167.41</ele>
        <time>2026-06-05T12:10:03Z</time>
      </trkpt>
      <trkpt lat="44.55333" lon="1.33259">
        <ele>165.96</ele>
        <time>2026-06-05T12:10:16Z</time>
      </trkpt>
      <trkpt lat="44.55327" lon="1.33248">
        <ele>165</ele>
        <time>2026-06-05T12:10:27Z</time>
      </trkpt>
      <trkpt lat="44.55323" lon="1.33243">
        <ele>165</ele>
        <time>2026-06-05T12:10:32Z</time>
      </trkpt>
      <trkpt lat="44.5532" lon="1.33239">
        <ele>164.52</ele>
        <time>2026-06-05T12:10:36Z</time>
      </trkpt>
      <trkpt lat="44.55319" lon="1.33238">
        <ele>164.52</ele>
        <time>2026-06-05T12:10:37Z</time>
      </trkpt>
      <trkpt lat="44.55314" lon="1.33228">
        <ele>164.04</ele>
        <time>2026-06-05T12:10:48Z</time>
      </trkpt>
      <trkpt lat="44.5531" lon="1.33214">
        <ele>163.08</ele>
        <time>2026-06-05T12:11:00Z</time>
      </trkpt>
      <trkpt lat="44.55311" lon="1.33206">
        <ele>162.12</ele>
        <time>2026-06-05T12:11:13Z</time>
      </trkpt>
      <trkpt lat="44.55317" lon="1.33199">
        <ele>162.12</ele>
        <time>2026-06-05T12:11:21Z</time>
      </trkpt>
      <trkpt lat="44.55323" lon="1.33189">
        <ele>161.16</ele>
        <time>2026-06-05T12:11:33Z</time>
      </trkpt>
      <trkpt lat="44.55328" lon="1.33173">
        <ele>161.16</ele>
        <time>2026-06-05T12:11:47Z</time>
      </trkpt>
      <trkpt lat="44.5533" lon="1.33155">
        <ele>161.16</ele>
        <time>2026-06-05T12:12:00Z</time>
      </trkpt>
      <trkpt lat="44.5533" lon="1.33153">
        <ele>161.16</ele>
        <time>2026-06-05T12:12:01Z</time>
      </trkpt>
      <trkpt lat="44.55329" lon="1.33145">
        <ele>161.16</ele>
        <time>2026-06-05T12:12:07Z</time>
      </trkpt>
      <trkpt lat="44.55324" lon="1.33125">
        <ele>161.16</ele>
        <time>2026-06-05T12:12:22Z</time>
      </trkpt>
      <trkpt lat="44.55322" lon="1.33117">
        <ele>161.16</ele>
        <time>2026-06-05T12:12:28Z</time>
      </trkpt>
      <trkpt lat="44.55319" lon="1.33108">
        <ele>160.68</ele>
        <time>2026-06-05T12:12:34Z</time>
      </trkpt>
      <trkpt lat="44.55317" lon="1.33093">
        <ele>160.68</ele>
        <time>2026-06-05T12:12:45Z</time>
      </trkpt>
      <trkpt lat="44.55314" lon="1.33078">
        <ele>160.68</ele>
        <time>2026-06-05T12:12:58Z</time>
      </trkpt>
      <trkpt lat="44.55315" lon="1.33063">
        <ele>160.68</ele>
        <time>2026-06-05T12:13:11Z</time>
      </trkpt>
      <trkpt lat="44.55315" lon="1.33063">
        <ele>160.68</ele>
        <time>2026-06-05T12:13:16Z</time>
      </trkpt>
      <trkpt lat="44.55312" lon="1.33061">
        <ele>160.68</ele>
        <time>2026-06-05T12:13:19Z</time>
      </trkpt>
      <trkpt lat="44.55308" lon="1.33057">
        <ele>160.68</ele>
        <time>2026-06-05T12:13:23Z</time>
      </trkpt>
      <trkpt lat="44.55308" lon="1.33053">
        <ele>160.68</ele>
        <time>2026-06-05T12:13:25Z</time>
      </trkpt>
      <trkpt lat="44.55302" lon="1.33038">
        <ele>160.2</ele>
        <time>2026-06-05T12:13:39Z</time>
      </trkpt>
      <trkpt lat="44.553" lon="1.3303">
        <ele>160.2</ele>
        <time>2026-06-05T12:13:51Z</time>
      </trkpt>
      <trkpt lat="44.55294" lon="1.33013">
        <ele>160.2</ele>
        <time>2026-06-05T12:14:06Z</time>
      </trkpt>
      <trkpt lat="44.55288" lon="1.32999">
        <ele>160.2</ele>
        <time>2026-06-05T12:14:19Z</time>
      </trkpt>
      <trkpt lat="44.55284" lon="1.32989">
        <ele>160.2</ele>
        <time>2026-06-05T12:14:32Z</time>
      </trkpt>
      <trkpt lat="44.55278" lon="1.32973">
        <ele>160.2</ele>
        <time>2026-06-05T12:14:46Z</time>
      </trkpt>
      <trkpt lat="44.55271" lon="1.32957">
        <ele>160.2</ele>
        <time>2026-06-05T12:14:58Z</time>
      </trkpt>
      <trkpt lat="44.55268" lon="1.32953">
        <ele>160.2</ele>
        <time>2026-06-05T12:15:01Z</time>
      </trkpt>
      <trkpt lat="44.5526" lon="1.32937">
        <ele>159.72</ele>
        <time>2026-06-05T12:15:15Z</time>
      </trkpt>
      <trkpt lat="44.55255" lon="1.32925">
        <ele>159.72</ele>
        <time>2026-06-05T12:15:27Z</time>
      </trkpt>
      <trkpt lat="44.55252" lon="1.32922">
        <ele>159.72</ele>
        <time>2026-06-05T12:15:30Z</time>
      </trkpt>
      <trkpt lat="44.5524" lon="1.32903">
        <ele>159.72</ele>
        <time>2026-06-05T12:15:46Z</time>
      </trkpt>
      <trkpt lat="44.55232" lon="1.32894">
        <ele>159.24</ele>
        <time>2026-06-05T12:15:57Z</time>
      </trkpt>
      <trkpt lat="44.55225" lon="1.32887">
        <ele>159.24</ele>
        <time>2026-06-05T12:16:10Z</time>
      </trkpt>
      <trkpt lat="44.55218" lon="1.32878">
        <ele>159.24</ele>
        <time>2026-06-05T12:16:24Z</time>
      </trkpt>
      <trkpt lat="44.55215" lon="1.32871">
        <ele>159.24</ele>
        <time>2026-06-05T12:16:38Z</time>
      </trkpt>
      <trkpt lat="44.55218" lon="1.32875">
        <ele>159.24</ele>
        <time>2026-06-05T12:16:52Z</time>
      </trkpt>
      <trkpt lat="44.55222" lon="1.32869">
        <ele>160.2</ele>
        <time>2026-06-05T12:17:13Z</time>
      </trkpt>
      <trkpt lat="44.55224" lon="1.3286">
        <ele>160.2</ele>
        <time>2026-06-05T12:17:31Z</time>
      </trkpt>
      <trkpt lat="44.55226" lon="1.32857">
        <ele>160.2</ele>
        <time>2026-06-05T12:17:37Z</time>
      </trkpt>
      <trkpt lat="44.55236" lon="1.32847">
        <ele>160.2</ele>
        <time>2026-06-05T12:17:49Z</time>
      </trkpt>
      <trkpt lat="44.55241" lon="1.32842">
        <ele>160.2</ele>
        <time>2026-06-05T12:17:58Z</time>
      </trkpt>
      <trkpt lat="44.55245" lon="1.32836">
        <ele>160.2</ele>
        <time>2026-06-05T12:18:05Z</time>
      </trkpt>
      <trkpt lat="44.55258" lon="1.32825">
        <ele>160.2</ele>
        <time>2026-06-05T12:18:18Z</time>
      </trkpt>
      <trkpt lat="44.55266" lon="1.32812">
        <ele>160.2</ele>
        <time>2026-06-05T12:18:29Z</time>
      </trkpt>
      <trkpt lat="44.55267" lon="1.32807">
        <ele>160.2</ele>
        <time>2026-06-05T12:18:32Z</time>
      </trkpt>
      <trkpt lat="44.55266" lon="1.32794">
        <ele>160.2</ele>
        <time>2026-06-05T12:18:42Z</time>
      </trkpt>
      <trkpt lat="44.55266" lon="1.32777">
        <ele>159.24</ele>
        <time>2026-06-05T12:18:55Z</time>
      </trkpt>
      <trkpt lat="44.55266" lon="1.32772">
        <ele>159.24</ele>
        <time>2026-06-05T12:18:58Z</time>
      </trkpt>
      <trkpt lat="44.55261" lon="1.32752">
        <ele>159.24</ele>
        <time>2026-06-05T12:19:12Z</time>
      </trkpt>
      <trkpt lat="44.55261" lon="1.32749">
        <ele>159.24</ele>
        <time>2026-06-05T12:19:14Z</time>
      </trkpt>
      <trkpt lat="44.55254" lon="1.32733">
        <ele>159.24</ele>
        <time>2026-06-05T12:19:28Z</time>
      </trkpt>
      <trkpt lat="44.55254" lon="1.32731">
        <ele>159.24</ele>
        <time>2026-06-05T12:19:30Z</time>
      </trkpt>
      <trkpt lat="44.55244" lon="1.32716">
        <ele>158.75</ele>
        <time>2026-06-05T12:19:43Z</time>
      </trkpt>
      <trkpt lat="44.55237" lon="1.32708">
        <ele>158.75</ele>
        <time>2026-06-05T12:19:51Z</time>
      </trkpt>
      <trkpt lat="44.55225" lon="1.32695">
        <ele>158.27</ele>
        <time>2026-06-05T12:20:06Z</time>
      </trkpt>
      <trkpt lat="44.55212" lon="1.3269">
        <ele>158.27</ele>
        <time>2026-06-05T12:20:20Z</time>
      </trkpt>
      <trkpt lat="44.55209" lon="1.32688">
        <ele>158.27</ele>
        <time>2026-06-05T12:20:33Z</time>
      </trkpt>
      <trkpt lat="44.55204" lon="1.32685">
        <ele>158.27</ele>
        <time>2026-06-05T12:20:48Z</time>
      </trkpt>
      <trkpt lat="44.55194" lon="1.3268">
        <ele>157.79</ele>
        <time>2026-06-05T12:21:01Z</time>
      </trkpt>
      <trkpt lat="44.55185" lon="1.32677">
        <ele>157.79</ele>
        <time>2026-06-05T12:21:14Z</time>
      </trkpt>
      <trkpt lat="44.55175" lon="1.32673">
        <ele>157.31</ele>
        <time>2026-06-05T12:21:26Z</time>
      </trkpt>
      <trkpt lat="44.55163" lon="1.32666">
        <ele>157.31</ele>
        <time>2026-06-05T12:21:40Z</time>
      </trkpt>
      <trkpt lat="44.55148" lon="1.32659">
        <ele>157.31</ele>
        <time>2026-06-05T12:21:55Z</time>
      </trkpt>
      <trkpt lat="44.55137" lon="1.32653">
        <ele>157.31</ele>
        <time>2026-06-05T12:22:09Z</time>
      </trkpt>
      <trkpt lat="44.55131" lon="1.32651">
        <ele>157.31</ele>
        <time>2026-06-05T12:22:20Z</time>
      </trkpt>
      <trkpt lat="44.55131" lon="1.32645">
        <ele>157.31</ele>
        <time>2026-06-05T12:22:31Z</time>
      </trkpt>
      <trkpt lat="44.55135" lon="1.32637">
        <ele>157.31</ele>
        <time>2026-06-05T12:22:43Z</time>
      </trkpt>
      <trkpt lat="44.55138" lon="1.32627">
        <ele>157.31</ele>
        <time>2026-06-05T12:22:55Z</time>
      </trkpt>
      <trkpt lat="44.55141" lon="1.32618">
        <ele>158.27</ele>
        <time>2026-06-05T12:23:06Z</time>
      </trkpt>
      <trkpt lat="44.55144" lon="1.32603">
        <ele>159.24</ele>
        <time>2026-06-05T12:23:21Z</time>
      </trkpt>
      <trkpt lat="44.55138" lon="1.32596">
        <ele>159.24</ele>
        <time>2026-06-05T12:23:32Z</time>
      </trkpt>
      <trkpt lat="44.55126" lon="1.32589">
        <ele>159.24</ele>
        <time>2026-06-05T12:23:48Z</time>
      </trkpt>
      <trkpt lat="44.5512" lon="1.32586">
        <ele>159.24</ele>
        <time>2026-06-05T12:23:55Z</time>
      </trkpt>
      <trkpt lat="44.55112" lon="1.32581">
        <ele>159.24</ele>
        <time>2026-06-05T12:24:04Z</time>
      </trkpt>
      <trkpt lat="44.55104" lon="1.32587">
        <ele>158.27</ele>
        <time>2026-06-05T12:24:16Z</time>
      </trkpt>
      <trkpt lat="44.55102" lon="1.32591">
        <ele>157.31</ele>
        <time>2026-06-05T12:24:31Z</time>
      </trkpt>
      <trkpt lat="44.55098" lon="1.32589">
        <ele>157.31</ele>
        <time>2026-06-05T12:24:57Z</time>
      </trkpt>
      <trkpt lat="44.55098" lon="1.32589">
        <ele>157.31</ele>
        <time>2026-06-05T12:25:03Z</time>
      </trkpt>
      <trkpt lat="44.55094" lon="1.32585">
        <ele>157.31</ele>
        <time>2026-06-05T12:25:08Z</time>
      </trkpt>
      <trkpt lat="44.55085" lon="1.3258">
        <ele>157.31</ele>
        <time>2026-06-05T12:25:20Z</time>
      </trkpt>
      <trkpt lat="44.55074" lon="1.32573">
        <ele>157.31</ele>
        <time>2026-06-05T12:25:34Z</time>
      </trkpt>
      <trkpt lat="44.55062" lon="1.32566">
        <ele>157.31</ele>
        <time>2026-06-05T12:25:48Z</time>
      </trkpt>
      <trkpt lat="44.55052" lon="1.3256">
        <ele>157.31</ele>
        <time>2026-06-05T12:26:01Z</time>
      </trkpt>
      <trkpt lat="44.55039" lon="1.32552">
        <ele>157.31</ele>
        <time>2026-06-05T12:26:15Z</time>
      </trkpt>
      <trkpt lat="44.55031" lon="1.32547">
        <ele>157.31</ele>
        <time>2026-06-05T12:26:24Z</time>
      </trkpt>
      <trkpt lat="44.55016" lon="1.3254">
        <ele>157.31</ele>
        <time>2026-06-05T12:26:39Z</time>
      </trkpt>
      <trkpt lat="44.5501" lon="1.32536">
        <ele>157.31</ele>
        <time>2026-06-05T12:26:52Z</time>
      </trkpt>
      <trkpt lat="44.55008" lon="1.32539">
        <ele>156.83</ele>
        <time>2026-06-05T12:27:11Z</time>
      </trkpt>
      <trkpt lat="44.55007" lon="1.32539">
        <ele>156.83</ele>
        <time>2026-06-05T12:27:38Z</time>
      </trkpt>
      <trkpt lat="44.55005" lon="1.32534">
        <ele>156.83</ele>
        <time>2026-06-05T12:27:52Z</time>
      </trkpt>
      <trkpt lat="44.54993" lon="1.32527">
        <ele>156.83</ele>
        <time>2026-06-05T12:28:06Z</time>
      </trkpt>
      <trkpt lat="44.54982" lon="1.32521">
        <ele>156.83</ele>
        <time>2026-06-05T12:28:18Z</time>
      </trkpt>
      <trkpt lat="44.5498" lon="1.32519">
        <ele>156.83</ele>
        <time>2026-06-05T12:28:20Z</time>
      </trkpt>
      <trkpt lat="44.54976" lon="1.32517">
        <ele>156.83</ele>
        <time>2026-06-05T12:28:24Z</time>
      </trkpt>
      <trkpt lat="44.54967" lon="1.32513">
        <ele>156.83</ele>
        <time>2026-06-05T12:28:33Z</time>
      </trkpt>
      <trkpt lat="44.54954" lon="1.32506">
        <ele>156.83</ele>
        <time>2026-06-05T12:28:47Z</time>
      </trkpt>
      <trkpt lat="44.54943" lon="1.32501">
        <ele>156.83</ele>
        <time>2026-06-05T12:28:59Z</time>
      </trkpt>
      <trkpt lat="44.54933" lon="1.32496">
        <ele>156.83</ele>
        <time>2026-06-05T12:29:09Z</time>
      </trkpt>
      <trkpt lat="44.54927" lon="1.32493">
        <ele>156.83</ele>
        <time>2026-06-05T12:29:16Z</time>
      </trkpt>
      <trkpt lat="44.54915" lon="1.32488">
        <ele>156.83</ele>
        <time>2026-06-05T12:29:29Z</time>
      </trkpt>
      <trkpt lat="44.5491" lon="1.32486">
        <ele>157.79</ele>
        <time>2026-06-05T12:29:35Z</time>
      </trkpt>
      <trkpt lat="44.54904" lon="1.32483">
        <ele>157.79</ele>
        <time>2026-06-05T12:29:41Z</time>
      </trkpt>
      <trkpt lat="44.549" lon="1.3248">
        <ele>157.79</ele>
        <time>2026-06-05T12:29:55Z</time>
      </trkpt>
      <trkpt lat="44.54899" lon="1.32481">
        <ele>157.79</ele>
        <time>2026-06-05T12:30:04Z</time>
      </trkpt>
      <trkpt lat="44.54897" lon="1.32482">
        <ele>157.79</ele>
        <time>2026-06-05T12:30:06Z</time>
      </trkpt>
      <trkpt lat="44.54886" lon="1.32481">
        <ele>157.79</ele>
        <time>2026-06-05T12:30:17Z</time>
      </trkpt>
      <trkpt lat="44.54874" lon="1.3248">
        <ele>157.79</ele>
        <time>2026-06-05T12:30:31Z</time>
      </trkpt>
      <trkpt lat="44.54861" lon="1.32481">
        <ele>157.79</ele>
        <time>2026-06-05T12:30:44Z</time>
      </trkpt>
      <trkpt lat="44.54848" lon="1.32486">
        <ele>157.79</ele>
        <time>2026-06-05T12:30:57Z</time>
      </trkpt>
      <trkpt lat="44.54838" lon="1.3249">
        <ele>157.79</ele>
        <time>2026-06-05T12:31:09Z</time>
      </trkpt>
      <trkpt lat="44.54827" lon="1.32495">
        <ele>157.79</ele>
        <time>2026-06-05T12:31:24Z</time>
      </trkpt>
      <trkpt lat="44.54813" lon="1.325">
        <ele>157.79</ele>
        <time>2026-06-05T12:31:38Z</time>
      </trkpt>
      <trkpt lat="44.54801" lon="1.32507">
        <ele>157.79</ele>
        <time>2026-06-05T12:31:51Z</time>
      </trkpt>
      <trkpt lat="44.54788" lon="1.32514">
        <ele>157.79</ele>
        <time>2026-06-05T12:32:04Z</time>
      </trkpt>
      <trkpt lat="44.54785" lon="1.32515">
        <ele>157.79</ele>
        <time>2026-06-05T12:32:08Z</time>
      </trkpt>
      <trkpt lat="44.54773" lon="1.32524">
        <ele>157.79</ele>
        <time>2026-06-05T12:32:23Z</time>
      </trkpt>
      <trkpt lat="44.54761" lon="1.32532">
        <ele>157.31</ele>
        <time>2026-06-05T12:32:36Z</time>
      </trkpt>
      <trkpt lat="44.5476" lon="1.32533">
        <ele>157.31</ele>
        <time>2026-06-05T12:32:38Z</time>
      </trkpt>
      <trkpt lat="44.5475" lon="1.32538">
        <ele>157.31</ele>
        <time>2026-06-05T12:32:51Z</time>
      </trkpt>
      <trkpt lat="44.54737" lon="1.32547">
        <ele>157.31</ele>
        <time>2026-06-05T12:33:06Z</time>
      </trkpt>
      <trkpt lat="44.54725" lon="1.32553">
        <ele>157.31</ele>
        <time>2026-06-05T12:33:19Z</time>
      </trkpt>
      <trkpt lat="44.54714" lon="1.32554">
        <ele>157.31</ele>
        <time>2026-06-05T12:33:32Z</time>
      </trkpt>
      <trkpt lat="44.54713" lon="1.32554">
        <ele>157.31</ele>
        <time>2026-06-05T12:33:33Z</time>
      </trkpt>
      <trkpt lat="44.547" lon="1.32555">
        <ele>157.31</ele>
        <time>2026-06-05T12:33:47Z</time>
      </trkpt>
      <trkpt lat="44.54694" lon="1.32553">
        <ele>157.31</ele>
        <time>2026-06-05T12:34:01Z</time>
      </trkpt>
      <trkpt lat="44.54687" lon="1.32545">
        <ele>155.87</ele>
        <time>2026-06-05T12:34:15Z</time>
      </trkpt>
      <trkpt lat="44.54683" lon="1.32547">
        <ele>155.39</ele>
        <time>2026-06-05T12:34:30Z</time>
      </trkpt>
      <trkpt lat="44.5468" lon="1.32539">
        <ele>156.83</ele>
        <time>2026-06-05T12:34:43Z</time>
      </trkpt>
      <trkpt lat="44.54679" lon="1.32538">
        <ele>155.39</ele>
        <time>2026-06-05T12:34:44Z</time>
      </trkpt>
      <trkpt lat="44.54667" lon="1.32519">
        <ele>154.91</ele>
        <time>2026-06-05T12:35:03Z</time>
      </trkpt>
      <trkpt lat="44.54662" lon="1.3251">
        <ele>154.91</ele>
        <time>2026-06-05T12:35:20Z</time>
      </trkpt>
      <trkpt lat="44.54658" lon="1.325">
        <ele>154.91</ele>
        <time>2026-06-05T12:35:32Z</time>
      </trkpt>
      <trkpt lat="44.54652" lon="1.32489">
        <ele>154.91</ele>
        <time>2026-06-05T12:35:44Z</time>
      </trkpt>
      <trkpt lat="44.54646" lon="1.32479">
        <ele>154.91</ele>
        <time>2026-06-05T12:35:58Z</time>
      </trkpt>
      <trkpt lat="44.54643" lon="1.32472">
        <ele>156.35</ele>
        <time>2026-06-05T12:36:11Z</time>
      </trkpt>
      <trkpt lat="44.54634" lon="1.3247">
        <ele>156.35</ele>
        <time>2026-06-05T12:36:24Z</time>
      </trkpt>
      <trkpt lat="44.54629" lon="1.32476">
        <ele>156.35</ele>
        <time>2026-06-05T12:36:37Z</time>
      </trkpt>
      <trkpt lat="44.54628" lon="1.32477">
        <ele>156.35</ele>
        <time>2026-06-05T12:36:51Z</time>
      </trkpt>
      <trkpt lat="44.54618" lon="1.32484">
        <ele>156.35</ele>
        <time>2026-06-05T12:37:03Z</time>
      </trkpt>
      <trkpt lat="44.54612" lon="1.32488">
        <ele>156.35</ele>
        <time>2026-06-05T12:37:16Z</time>
      </trkpt>
      <trkpt lat="44.5461" lon="1.3249">
        <ele>156.35</ele>
        <time>2026-06-05T12:37:18Z</time>
      </trkpt>
      <trkpt lat="44.54608" lon="1.32491">
        <ele>156.35</ele>
        <time>2026-06-05T12:37:20Z</time>
      </trkpt>
      <trkpt lat="44.54598" lon="1.32499">
        <ele>156.35</ele>
        <time>2026-06-05T12:37:33Z</time>
      </trkpt>
      <trkpt lat="44.54591" lon="1.32503">
        <ele>156.35</ele>
        <time>2026-06-05T12:37:45Z</time>
      </trkpt>
      <trkpt lat="44.54576" lon="1.32514">
        <ele>156.35</ele>
        <time>2026-06-05T12:38:01Z</time>
      </trkpt>
      <trkpt lat="44.54563" lon="1.32523">
        <ele>156.35</ele>
        <time>2026-06-05T12:38:15Z</time>
      </trkpt>
      <trkpt lat="44.54554" lon="1.3253">
        <ele>156.83</ele>
        <time>2026-06-05T12:38:30Z</time>
      </trkpt>
      <trkpt lat="44.54546" lon="1.32535">
        <ele>157.31</ele>
        <time>2026-06-05T12:38:44Z</time>
      </trkpt>
      <trkpt lat="44.54541" lon="1.32536">
        <ele>156.83</ele>
        <time>2026-06-05T12:39:00Z</time>
      </trkpt>
      <trkpt lat="44.54531" lon="1.32543">
        <ele>157.31</ele>
        <time>2026-06-05T12:39:14Z</time>
      </trkpt>
      <trkpt lat="44.54525" lon="1.3255">
        <ele>157.31</ele>
        <time>2026-06-05T12:39:25Z</time>
      </trkpt>
      <trkpt lat="44.54527" lon="1.32565">
        <ele>157.31</ele>
        <time>2026-06-05T12:39:38Z</time>
      </trkpt>
      <trkpt lat="44.54531" lon="1.32577">
        <ele>157.31</ele>
        <time>2026-06-05T12:39:50Z</time>
      </trkpt>
      <trkpt lat="44.54534" lon="1.32589">
        <ele>157.31</ele>
        <time>2026-06-05T12:40:03Z</time>
      </trkpt>
      <trkpt lat="44.54539" lon="1.326">
        <ele>157.31</ele>
        <time>2026-06-05T12:40:14Z</time>
      </trkpt>
      <trkpt lat="44.5455" lon="1.32617">
        <ele>157.31</ele>
        <time>2026-06-05T12:40:29Z</time>
      </trkpt>
      <trkpt lat="44.54557" lon="1.32625">
        <ele>157.31</ele>
        <time>2026-06-05T12:40:42Z</time>
      </trkpt>
      <trkpt lat="44.54566" lon="1.32638">
        <ele>157.31</ele>
        <time>2026-06-05T12:40:55Z</time>
      </trkpt>
      <trkpt lat="44.54575" lon="1.32649">
        <ele>157.31</ele>
        <time>2026-06-05T12:41:07Z</time>
      </trkpt>
      <trkpt lat="44.5458" lon="1.32654">
        <ele>157.79</ele>
        <time>2026-06-05T12:41:19Z</time>
      </trkpt>
      <trkpt lat="44.54583" lon="1.32657">
        <ele>157.79</ele>
        <time>2026-06-05T12:41:23Z</time>
      </trkpt>
      <trkpt lat="44.54592" lon="1.32665">
        <ele>157.79</ele>
        <time>2026-06-05T12:41:35Z</time>
      </trkpt>
      <trkpt lat="44.54599" lon="1.32671">
        <ele>157.79</ele>
        <time>2026-06-05T12:41:42Z</time>
      </trkpt>
      <trkpt lat="44.54605" lon="1.32675">
        <ele>157.79</ele>
        <time>2026-06-05T12:41:54Z</time>
      </trkpt>
      <trkpt lat="44.54613" lon="1.32682">
        <ele>157.79</ele>
        <time>2026-06-05T12:42:07Z</time>
      </trkpt>
      <trkpt lat="44.54621" lon="1.32689">
        <ele>157.79</ele>
        <time>2026-06-05T12:42:19Z</time>
      </trkpt>
      <trkpt lat="44.54633" lon="1.32693">
        <ele>157.79</ele>
        <time>2026-06-05T12:42:32Z</time>
      </trkpt>
      <trkpt lat="44.54642" lon="1.32695">
        <ele>157.79</ele>
        <time>2026-06-05T12:42:46Z</time>
      </trkpt>
      <trkpt lat="44.5465" lon="1.32696">
        <ele>157.79</ele>
        <time>2026-06-05T12:42:58Z</time>
      </trkpt>
      <trkpt lat="44.54656" lon="1.32699">
        <ele>157.79</ele>
        <time>2026-06-05T12:43:11Z</time>
      </trkpt>
      <trkpt lat="44.5466" lon="1.327">
        <ele>157.79</ele>
        <time>2026-06-05T12:43:24Z</time>
      </trkpt>
      <trkpt lat="44.54659" lon="1.32699">
        <ele>157.79</ele>
        <time>2026-06-05T12:43:53Z</time>
      </trkpt>
      <trkpt lat="44.5466" lon="1.32698">
        <ele>157.79</ele>
        <time>2026-06-05T12:44:15Z</time>
      </trkpt>
      <trkpt lat="44.54661" lon="1.32698">
        <ele>157.79</ele>
        <time>2026-06-05T12:44:36Z</time>
      </trkpt>
      <trkpt lat="44.54667" lon="1.327">
        <ele>158.27</ele>
        <time>2026-06-05T12:44:52Z</time>
      </trkpt>
      <trkpt lat="44.54675" lon="1.32702">
        <ele>158.27</ele>
        <time>2026-06-05T12:45:07Z</time>
      </trkpt>
      <trkpt lat="44.54686" lon="1.32703">
        <ele>158.27</ele>
        <time>2026-06-05T12:45:19Z</time>
      </trkpt>
      <trkpt lat="44.547" lon="1.32704">
        <ele>158.27</ele>
        <time>2026-06-05T12:45:33Z</time>
      </trkpt>
      <trkpt lat="44.54705" lon="1.32704">
        <ele>158.27</ele>
        <time>2026-06-05T12:45:38Z</time>
      </trkpt>
      <trkpt lat="44.54718" lon="1.32704">
        <ele>158.27</ele>
        <time>2026-06-05T12:45:52Z</time>
      </trkpt>
      <trkpt lat="44.5472" lon="1.32704">
        <ele>158.27</ele>
        <time>2026-06-05T12:45:54Z</time>
      </trkpt>
      <trkpt lat="44.5473" lon="1.32704">
        <ele>158.75</ele>
        <time>2026-06-05T12:46:07Z</time>
      </trkpt>
      <trkpt lat="44.54743" lon="1.32702">
        <ele>158.75</ele>
        <time>2026-06-05T12:46:20Z</time>
      </trkpt>
      <trkpt lat="44.54753" lon="1.32705">
        <ele>158.75</ele>
        <time>2026-06-05T12:46:30Z</time>
      </trkpt>
      <trkpt lat="44.54756" lon="1.32705">
        <ele>158.75</ele>
        <time>2026-06-05T12:46:33Z</time>
      </trkpt>
      <trkpt lat="44.54763" lon="1.32707">
        <ele>158.75</ele>
        <time>2026-06-05T12:46:40Z</time>
      </trkpt>
      <trkpt lat="44.54766" lon="1.32707">
        <ele>158.75</ele>
        <time>2026-06-05T12:46:43Z</time>
      </trkpt>
      <trkpt lat="44.54772" lon="1.32708">
        <ele>159.24</ele>
        <time>2026-06-05T12:46:55Z</time>
      </trkpt>
      <trkpt lat="44.54784" lon="1.32717">
        <ele>159.24</ele>
        <time>2026-06-05T12:47:08Z</time>
      </trkpt>
      <trkpt lat="44.54794" lon="1.32723">
        <ele>159.24</ele>
        <time>2026-06-05T12:47:20Z</time>
      </trkpt>
      <trkpt lat="44.54799" lon="1.32724">
        <ele>159.24</ele>
        <time>2026-06-05T12:47:24Z</time>
      </trkpt>
      <trkpt lat="44.54815" lon="1.32732">
        <ele>159.24</ele>
        <time>2026-06-05T12:47:41Z</time>
      </trkpt>
      <trkpt lat="44.54826" lon="1.32738">
        <ele>159.24</ele>
        <time>2026-06-05T12:47:55Z</time>
      </trkpt>
      <trkpt lat="44.54836" lon="1.32741">
        <ele>159.24</ele>
        <time>2026-06-05T12:48:09Z</time>
      </trkpt>
      <trkpt lat="44.5485" lon="1.32742">
        <ele>159.24</ele>
        <time>2026-06-05T12:48:24Z</time>
      </trkpt>
      <trkpt lat="44.54864" lon="1.32743">
        <ele>159.72</ele>
        <time>2026-06-05T12:48:38Z</time>
      </trkpt>
      <trkpt lat="44.54876" lon="1.32742">
        <ele>159.72</ele>
        <time>2026-06-05T12:48:50Z</time>
      </trkpt>
      <trkpt lat="44.54887" lon="1.3274">
        <ele>159.72</ele>
        <time>2026-06-05T12:49:03Z</time>
      </trkpt>
      <trkpt lat="44.54897" lon="1.32739">
        <ele>159.72</ele>
        <time>2026-06-05T12:49:16Z</time>
      </trkpt>
      <trkpt lat="44.54909" lon="1.32741">
        <ele>159.72</ele>
        <time>2026-06-05T12:49:28Z</time>
      </trkpt>
      <trkpt lat="44.54916" lon="1.32739">
        <ele>159.72</ele>
        <time>2026-06-05T12:49:37Z</time>
      </trkpt>
      <trkpt lat="44.5493" lon="1.32737">
        <ele>159.72</ele>
        <time>2026-06-05T12:49:51Z</time>
      </trkpt>
      <trkpt lat="44.54944" lon="1.32736">
        <ele>159.72</ele>
        <time>2026-06-05T12:50:06Z</time>
      </trkpt>
      <trkpt lat="44.54954" lon="1.32736">
        <ele>159.72</ele>
        <time>2026-06-05T12:50:19Z</time>
      </trkpt>
      <trkpt lat="44.54966" lon="1.32736">
        <ele>159.72</ele>
        <time>2026-06-05T12:50:31Z</time>
      </trkpt>
      <trkpt lat="44.54977" lon="1.32738">
        <ele>159.72</ele>
        <time>2026-06-05T12:50:44Z</time>
      </trkpt>
      <trkpt lat="44.54989" lon="1.32742">
        <ele>159.72</ele>
        <time>2026-06-05T12:50:58Z</time>
      </trkpt>
      <trkpt lat="44.54996" lon="1.32747">
        <ele>159.72</ele>
        <time>2026-06-05T12:51:10Z</time>
      </trkpt>
      <trkpt lat="44.55002" lon="1.32756">
        <ele>159.72</ele>
        <time>2026-06-05T12:51:23Z</time>
      </trkpt>
      <trkpt lat="44.55011" lon="1.3277">
        <ele>160.2</ele>
        <time>2026-06-05T12:51:39Z</time>
      </trkpt>
      <trkpt lat="44.55021" lon="1.32782">
        <ele>160.2</ele>
        <time>2026-06-05T12:51:53Z</time>
      </trkpt>
      <trkpt lat="44.55027" lon="1.32793">
        <ele>160.2</ele>
        <time>2026-06-05T12:52:05Z</time>
      </trkpt>
      <trkpt lat="44.55031" lon="1.328">
        <ele>160.2</ele>
        <time>2026-06-05T12:52:21Z</time>
      </trkpt>
      <trkpt lat="44.55033" lon="1.32807">
        <ele>160.2</ele>
        <time>2026-06-05T12:52:35Z</time>
      </trkpt>
      <trkpt lat="44.55037" lon="1.32814">
        <ele>160.2</ele>
        <time>2026-06-05T12:52:51Z</time>
      </trkpt>
      <trkpt lat="44.55042" lon="1.3282">
        <ele>160.2</ele>
        <time>2026-06-05T12:53:05Z</time>
      </trkpt>
      <trkpt lat="44.55044" lon="1.32827">
        <ele>160.2</ele>
        <time>2026-06-05T12:53:19Z</time>
      </trkpt>
      <trkpt lat="44.55045" lon="1.32833">
        <ele>160.2</ele>
        <time>2026-06-05T12:53:33Z</time>
      </trkpt>
      <trkpt lat="44.55051" lon="1.32845">
        <ele>160.2</ele>
        <time>2026-06-05T12:53:45Z</time>
      </trkpt>
      <trkpt lat="44.5506" lon="1.32858">
        <ele>160.2</ele>
        <time>2026-06-05T12:54:00Z</time>
      </trkpt>
      <trkpt lat="44.55067" lon="1.32866">
        <ele>160.2</ele>
        <time>2026-06-05T12:54:13Z</time>
      </trkpt>
      <trkpt lat="44.55071" lon="1.3287">
        <ele>160.2</ele>
        <time>2026-06-05T12:54:26Z</time>
      </trkpt>
      <trkpt lat="44.55079" lon="1.32881">
        <ele>160.2</ele>
        <time>2026-06-05T12:54:39Z</time>
      </trkpt>
      <trkpt lat="44.55087" lon="1.32888">
        <ele>160.2</ele>
        <time>2026-06-05T12:54:53Z</time>
      </trkpt>
      <trkpt lat="44.55095" lon="1.32897">
        <ele>160.2</ele>
        <time>2026-06-05T12:55:07Z</time>
      </trkpt>
      <trkpt lat="44.55104" lon="1.32906">
        <ele>160.68</ele>
        <time>2026-06-05T12:55:20Z</time>
      </trkpt>
      <trkpt lat="44.55115" lon="1.32917">
        <ele>160.68</ele>
        <time>2026-06-05T12:55:35Z</time>
      </trkpt>
      <trkpt lat="44.55123" lon="1.32929">
        <ele>161.16</ele>
        <time>2026-06-05T12:55:50Z</time>
      </trkpt>
      <trkpt lat="44.5513" lon="1.32939">
        <ele>161.16</ele>
        <time>2026-06-05T12:56:03Z</time>
      </trkpt>
      <trkpt lat="44.55138" lon="1.32951">
        <ele>161.16</ele>
        <time>2026-06-05T12:56:17Z</time>
      </trkpt>
      <trkpt lat="44.55144" lon="1.32956">
        <ele>161.16</ele>
        <time>2026-06-05T12:56:31Z</time>
      </trkpt>
      <trkpt lat="44.55151" lon="1.32963">
        <ele>161.16</ele>
        <time>2026-06-05T12:56:44Z</time>
      </trkpt>
      <trkpt lat="44.55158" lon="1.32969">
        <ele>161.16</ele>
        <time>2026-06-05T12:56:57Z</time>
      </trkpt>
      <trkpt lat="44.55163" lon="1.32979">
        <ele>161.16</ele>
        <time>2026-06-05T12:57:10Z</time>
      </trkpt>
      <trkpt lat="44.5517" lon="1.32987">
        <ele>161.16</ele>
        <time>2026-06-05T12:57:22Z</time>
      </trkpt>
      <trkpt lat="44.55181" lon="1.32998">
        <ele>161.16</ele>
        <time>2026-06-05T12:57:36Z</time>
      </trkpt>
      <trkpt lat="44.5519" lon="1.3301">
        <ele>161.16</ele>
        <time>2026-06-05T12:57:50Z</time>
      </trkpt>
      <trkpt lat="44.552" lon="1.3302">
        <ele>161.16</ele>
        <time>2026-06-05T12:58:04Z</time>
      </trkpt>
      <trkpt lat="44.55209" lon="1.33031">
        <ele>161.64</ele>
        <time>2026-06-05T12:58:19Z</time>
      </trkpt>
      <trkpt lat="44.5521" lon="1.33037">
        <ele>161.16</ele>
        <time>2026-06-05T12:58:37Z</time>
      </trkpt>
      <trkpt lat="44.55217" lon="1.33048">
        <ele>161.16</ele>
        <time>2026-06-05T12:58:51Z</time>
      </trkpt>
      <trkpt lat="44.55224" lon="1.33058">
        <ele>161.16</ele>
        <time>2026-06-05T12:59:03Z</time>
      </trkpt>
      <trkpt lat="44.5523" lon="1.3307">
        <ele>161.16</ele>
        <time>2026-06-05T12:59:16Z</time>
      </trkpt>
      <trkpt lat="44.55232" lon="1.3308">
        <ele>161.16</ele>
        <time>2026-06-05T12:59:32Z</time>
      </trkpt>
      <trkpt lat="44.55239" lon="1.33094">
        <ele>161.16</ele>
        <time>2026-06-05T12:59:46Z</time>
      </trkpt>
      <trkpt lat="44.55247" lon="1.33108">
        <ele>161.16</ele>
        <time>2026-06-05T13:00:00Z</time>
      </trkpt>
      <trkpt lat="44.55252" lon="1.3312">
        <ele>161.64</ele>
        <time>2026-06-05T13:00:13Z</time>
      </trkpt>
      <trkpt lat="44.55259" lon="1.33133">
        <ele>161.64</ele>
        <time>2026-06-05T13:00:27Z</time>
      </trkpt>
      <trkpt lat="44.55264" lon="1.33142">
        <ele>162.12</ele>
        <time>2026-06-05T13:00:40Z</time>
      </trkpt>
      <trkpt lat="44.55273" lon="1.33158">
        <ele>162.12</ele>
        <time>2026-06-05T13:00:55Z</time>
      </trkpt>
      <trkpt lat="44.55276" lon="1.33162">
        <ele>162.12</ele>
        <time>2026-06-05T13:01:13Z</time>
      </trkpt>
      <trkpt lat="44.55281" lon="1.3317">
        <ele>162.12</ele>
        <time>2026-06-05T13:01:32Z</time>
      </trkpt>
      <trkpt lat="44.55284" lon="1.33176">
        <ele>162.12</ele>
        <time>2026-06-05T13:01:47Z</time>
      </trkpt>
      <trkpt lat="44.5529" lon="1.33187">
        <ele>162.12</ele>
        <time>2026-06-05T13:01:59Z</time>
      </trkpt>
      <trkpt lat="44.55293" lon="1.33194">
        <ele>162.12</ele>
        <time>2026-06-05T13:02:12Z</time>
      </trkpt>
      <trkpt lat="44.55299" lon="1.33203">
        <ele>162.12</ele>
        <time>2026-06-05T13:02:25Z</time>
      </trkpt>
      <trkpt lat="44.55309" lon="1.33213">
        <ele>162.6</ele>
        <time>2026-06-05T13:02:39Z</time>
      </trkpt>
      <trkpt lat="44.55309" lon="1.33215">
        <ele>162.6</ele>
        <time>2026-06-05T13:02:55Z</time>
      </trkpt>
      <trkpt lat="44.55313" lon="1.33226">
        <ele>163.08</ele>
        <time>2026-06-05T13:03:07Z</time>
      </trkpt>
      <trkpt lat="44.55319" lon="1.33239">
        <ele>163.56</ele>
        <time>2026-06-05T13:03:20Z</time>
      </trkpt>
      <trkpt lat="44.55325" lon="1.33251">
        <ele>164.04</ele>
        <time>2026-06-05T13:03:32Z</time>
      </trkpt>
      <trkpt lat="44.55326" lon="1.33254">
        <ele>164.52</ele>
        <time>2026-06-05T13:03:34Z</time>
      </trkpt>
      <trkpt lat="44.55334" lon="1.33265">
        <ele>165.48</ele>
        <time>2026-06-05T13:03:48Z</time>
      </trkpt>
      <trkpt lat="44.55341" lon="1.33277">
        <ele>166.45</ele>
        <time>2026-06-05T13:04:00Z</time>
      </trkpt>
      <trkpt lat="44.55344" lon="1.33279">
        <ele>166.93</ele>
        <time>2026-06-05T13:04:13Z</time>
      </trkpt>
      <trkpt lat="44.55345" lon="1.33285">
        <ele>167.41</ele>
        <time>2026-06-05T13:04:29Z</time>
      </trkpt>
      <trkpt lat="44.55347" lon="1.33285">
        <ele>167.89</ele>
        <time>2026-06-05T13:04:44Z</time>
      </trkpt>
      <trkpt lat="44.55349" lon="1.33292">
        <ele>167.89</ele>
        <time>2026-06-05T13:05:01Z</time>
      </trkpt>
      <trkpt lat="44.55353" lon="1.33302">
        <ele>169.33</ele>
        <time>2026-06-05T13:05:14Z</time>
      </trkpt>
      <trkpt lat="44.55363" lon="1.33319">
        <ele>169.81</ele>
        <time>2026-06-05T13:05:30Z</time>
      </trkpt>
      <trkpt lat="44.5537" lon="1.33328">
        <ele>170.77</ele>
        <time>2026-06-05T13:05:42Z</time>
      </trkpt>
      <trkpt lat="44.55375" lon="1.33337">
        <ele>171.25</ele>
        <time>2026-06-05T13:05:54Z</time>
      </trkpt>
      <trkpt lat="44.55378" lon="1.3334">
        <ele>171.25</ele>
        <time>2026-06-05T13:06:11Z</time>
      </trkpt>
      <trkpt lat="44.55381" lon="1.33347">
        <ele>171.73</ele>
        <time>2026-06-05T13:06:27Z</time>
      </trkpt>
      <trkpt lat="44.55385" lon="1.33358">
        <ele>171.73</ele>
        <time>2026-06-05T13:06:39Z</time>
      </trkpt>
      <trkpt lat="44.55388" lon="1.33365">
        <ele>172.21</ele>
        <time>2026-06-05T13:06:54Z</time>
      </trkpt>
      <trkpt lat="44.55389" lon="1.33365">
        <ele>172.21</ele>
        <time>2026-06-05T13:07:22Z</time>
      </trkpt>
      <trkpt lat="44.55393" lon="1.33365">
        <ele>172.21</ele>
        <time>2026-06-05T13:07:51Z</time>
      </trkpt>
      <trkpt lat="44.55398" lon="1.33375">
        <ele>172.21</ele>
        <time>2026-06-05T13:08:06Z</time>
      </trkpt>
      <trkpt lat="44.55404" lon="1.33388">
        <ele>172.69</ele>
        <time>2026-06-05T13:08:21Z</time>
      </trkpt>
      <trkpt lat="44.55409" lon="1.33398">
        <ele>171.25</ele>
        <time>2026-06-05T13:08:31Z</time>
      </trkpt>
      <trkpt lat="44.55414" lon="1.33412">
        <ele>170.29</ele>
        <time>2026-06-05T13:08:46Z</time>
      </trkpt>
      <trkpt lat="44.55421" lon="1.33427">
        <ele>168.37</ele>
        <time>2026-06-05T13:09:01Z</time>
      </trkpt>
      <trkpt lat="44.55426" lon="1.33439">
        <ele>167.89</ele>
        <time>2026-06-05T13:09:14Z</time>
      </trkpt>
      <trkpt lat="44.55435" lon="1.33455">
        <ele>166.45</ele>
        <time>2026-06-05T13:09:30Z</time>
      </trkpt>
      <trkpt lat="44.55441" lon="1.33465">
        <ele>166.45</ele>
        <time>2026-06-05T13:09:43Z</time>
      </trkpt>
      <trkpt lat="44.55446" lon="1.33477">
        <ele>165.96</ele>
        <time>2026-06-05T13:09:56Z</time>
      </trkpt>
      <trkpt lat="44.55447" lon="1.33483">
        <ele>165.96</ele>
        <time>2026-06-05T13:10:02Z</time>
      </trkpt>
      <trkpt lat="44.55454" lon="1.335">
        <ele>165.96</ele>
        <time>2026-06-05T13:10:15Z</time>
      </trkpt>
      <trkpt lat="44.55457" lon="1.33515">
        <ele>165.96</ele>
        <time>2026-06-05T13:10:27Z</time>
      </trkpt>
      <trkpt lat="44.55459" lon="1.33517">
        <ele>165.96</ele>
        <time>2026-06-05T13:10:29Z</time>
      </trkpt>
      <trkpt lat="44.55462" lon="1.33534">
        <ele>165.48</ele>
        <time>2026-06-05T13:10:43Z</time>
      </trkpt>
      <trkpt lat="44.55462" lon="1.33541">
        <ele>165.48</ele>
        <time>2026-06-05T13:10:54Z</time>
      </trkpt>
      <trkpt lat="44.55468" lon="1.33555">
        <ele>165.48</ele>
        <time>2026-06-05T13:11:07Z</time>
      </trkpt>
      <trkpt lat="44.55475" lon="1.33567">
        <ele>165.48</ele>
        <time>2026-06-05T13:11:19Z</time>
      </trkpt>
      <trkpt lat="44.55485" lon="1.33584">
        <ele>165.48</ele>
        <time>2026-06-05T13:11:36Z</time>
      </trkpt>
      <trkpt lat="44.5549" lon="1.33598">
        <ele>165.48</ele>
        <time>2026-06-05T13:11:48Z</time>
      </trkpt>
      <trkpt lat="44.55494" lon="1.33607">
        <ele>165.48</ele>
        <time>2026-06-05T13:12:02Z</time>
      </trkpt>
      <trkpt lat="44.55501" lon="1.3362">
        <ele>165.48</ele>
        <time>2026-06-05T13:12:15Z</time>
      </trkpt>
      <trkpt lat="44.55505" lon="1.33632">
        <ele>165.48</ele>
        <time>2026-06-05T13:12:27Z</time>
      </trkpt>
      <trkpt lat="44.55513" lon="1.33649">
        <ele>165.48</ele>
        <time>2026-06-05T13:12:42Z</time>
      </trkpt>
      <trkpt lat="44.55515" lon="1.33653">
        <ele>165.48</ele>
        <time>2026-06-05T13:12:45Z</time>
      </trkpt>
      <trkpt lat="44.5551" lon="1.33663">
        <ele>165.48</ele>
        <time>2026-06-05T13:12:58Z</time>
      </trkpt>
      <trkpt lat="44.55502" lon="1.33669">
        <ele>165.48</ele>
        <time>2026-06-05T13:13:11Z</time>
      </trkpt>
      <trkpt lat="44.55494" lon="1.33678">
        <ele>165.48</ele>
        <time>2026-06-05T13:13:25Z</time>
      </trkpt>
      <trkpt lat="44.55494" lon="1.33694">
        <ele>166.45</ele>
        <time>2026-06-05T13:13:39Z</time>
      </trkpt>
      <trkpt lat="44.55492" lon="1.33698">
        <ele>166.45</ele>
        <time>2026-06-05T13:13:53Z</time>
      </trkpt>
      <trkpt lat="44.55487" lon="1.33714">
        <ele>166.45</ele>
        <time>2026-06-05T13:14:06Z</time>
      </trkpt>
      <trkpt lat="44.55487" lon="1.33719">
        <ele>166.45</ele>
        <time>2026-06-05T13:14:11Z</time>
      </trkpt>
      <trkpt lat="44.55491" lon="1.33724">
        <ele>166.93</ele>
        <time>2026-06-05T13:14:23Z</time>
      </trkpt>
      <trkpt lat="44.55492" lon="1.33727">
        <ele>166.93</ele>
        <time>2026-06-05T13:14:25Z</time>
      </trkpt>
      <trkpt lat="44.55495" lon="1.33744">
        <ele>166.93</ele>
        <time>2026-06-05T13:14:38Z</time>
      </trkpt>
      <trkpt lat="44.55495" lon="1.33757">
        <ele>167.41</ele>
        <time>2026-06-05T13:14:48Z</time>
      </trkpt>
      <trkpt lat="44.55499" lon="1.33778">
        <ele>166.93</ele>
        <time>2026-06-05T13:15:04Z</time>
      </trkpt>
      <trkpt lat="44.55501" lon="1.33792">
        <ele>166.93</ele>
        <time>2026-06-05T13:15:16Z</time>
      </trkpt>
      <trkpt lat="44.55502" lon="1.33798">
        <ele>166.93</ele>
        <time>2026-06-05T13:15:22Z</time>
      </trkpt>
      <trkpt lat="44.55503" lon="1.33804">
        <ele>166.93</ele>
        <time>2026-06-05T13:15:26Z</time>
      </trkpt>
      <trkpt lat="44.55506" lon="1.33808">
        <ele>166.93</ele>
        <time>2026-06-05T13:15:36Z</time>
      </trkpt>
      <trkpt lat="44.55509" lon="1.33824">
        <ele>166.93</ele>
        <time>2026-06-05T13:15:51Z</time>
      </trkpt>
      <trkpt lat="44.5551" lon="1.33835">
        <ele>166.93</ele>
        <time>2026-06-05T13:16:02Z</time>
      </trkpt>
      <trkpt lat="44.55512" lon="1.3385">
        <ele>166.93</ele>
        <time>2026-06-05T13:16:14Z</time>
      </trkpt>
      <trkpt lat="44.55513" lon="1.33865">
        <ele>166.93</ele>
        <time>2026-06-05T13:16:25Z</time>
      </trkpt>
      <trkpt lat="44.55515" lon="1.3388">
        <ele>166.93</ele>
        <time>2026-06-05T13:16:36Z</time>
      </trkpt>
      <trkpt lat="44.55516" lon="1.33898">
        <ele>166.93</ele>
        <time>2026-06-05T13:16:50Z</time>
      </trkpt>
      <trkpt lat="44.55519" lon="1.33914">
        <ele>166.93</ele>
        <time>2026-06-05T13:17:03Z</time>
      </trkpt>
      <trkpt lat="44.55521" lon="1.33925">
        <ele>166.93</ele>
        <time>2026-06-05T13:17:14Z</time>
      </trkpt>
      <trkpt lat="44.55522" lon="1.33937">
        <ele>166.93</ele>
        <time>2026-06-05T13:17:27Z</time>
      </trkpt>
      <trkpt lat="44.55525" lon="1.33955">
        <ele>166.93</ele>
        <time>2026-06-05T13:17:42Z</time>
      </trkpt>
      <trkpt lat="44.55529" lon="1.33957">
        <ele>167.41</ele>
        <time>2026-06-05T13:17:58Z</time>
      </trkpt>
      <trkpt lat="44.55528" lon="1.33954">
        <ele>167.41</ele>
        <time>2026-06-05T13:18:13Z</time>
      </trkpt>
      <trkpt lat="44.55527" lon="1.33954">
        <ele>165.96</ele>
        <time>2026-06-05T13:18:18Z</time>
      </trkpt>
      <trkpt lat="44.55525" lon="1.33952">
        <ele>165.96</ele>
        <time>2026-06-05T13:18:48Z</time>
      </trkpt>
      <trkpt lat="44.55524" lon="1.33951">
        <ele>166.93</ele>
        <time>2026-06-05T13:19:06Z</time>
      </trkpt>
      <trkpt lat="44.55524" lon="1.33951">
        <ele>165.96</ele>
        <time>2026-06-05T13:19:11Z</time>
      </trkpt>
      <trkpt lat="44.55524" lon="1.33951">
        <ele>167.41</ele>
        <time>2026-06-05T13:19:15Z</time>
      </trkpt>
      <trkpt lat="44.55524" lon="1.33951">
        <ele>165.96</ele>
        <time>2026-06-05T13:19:18Z</time>
      </trkpt>
      <trkpt lat="44.55524" lon="1.33951">
        <ele>166.93</ele>
        <time>2026-06-05T13:19:21Z</time>
      </trkpt>
    </trkseg>
  </trk>
</gpx>